Terminal Aerodrome Forecast
Issued by NWS Bismarck, ND

Home | Current Version | Previous Version | Text Only | Print | Product List | Glossary Off
Versions: 1 2 3 4 5 6 7 8 9 10 11 12 13 14 15 16 17 18 19 20 21 22

000
FTUS43 KBIS 051730
TAFISN
TAF
KISN 051730Z 0518/0618 36017G23KT 3SM FU BKN035
      TEMPO 0518/0520 2SM FU BKN025
     FM060100 34008KT P6SM BKN070
     FM061000 32005KT P6SM BKN035 OVC080=

USA.gov is the U.S. government's official web portal to all federal, state and local government web resources and services.